Time;durP1;ratioP1;P1;durP2;ratioP2;P2;SDS_P1;SDS_P2;PMS_P1;PMS_P2;Temp;Humidity;BMP_temperature;BMP_pressure;BME280_temperature;BME280_humidity;BME280_pressure;Samples;Min_cycle;Max_cycle;Signal;HPM_P1;HPM_P2
2022/07/18 00:01:10;;;;;;;3.28;1.70;;;16.10;99.90;;;;;;4826025;29;20051;-83
2022/07/18 00:04:08;;;;;;;2.83;1.23;;;16.10;99.90;;;;;;4831545;29;20129;-82
2022/07/18 00:07:00;;;;;;;4.60;1.70;;;16.20;99.90;;;;;;4830016;29;20077;-84
2022/07/18 00:09:50;;;;;;;1.65;1.52;;;16.10;99.90;;;;;;4843208;29;20103;-83
2022/07/18 00:12:48;;;;;;;2.92;1.33;;;16.00;99.90;;;;;;4822301;29;20061;-83
2022/07/18 00:15:39;;;;;;;4.47;1.38;;;15.90;99.90;;;;;;4835015;29;20162;-83
2022/07/18 00:18:26;;;;;;;2.72;1.40;;;15.90;99.90;;;;;;4833035;29;20059;-83
2022/07/18 00:21:17;;;;;;;3.17;1.45;;;15.90;99.90;;;;;;4824360;29;20061;-83
2022/07/18 00:24:08;;;;;;;4.35;1.20;;;15.90;99.90;;;;;;4823348;29;20076;-83
2022/07/18 00:26:57;;;;;;;2.72;1.42;;;15.90;99.90;;;;;;4820400;29;20104;-83
2022/07/18 00:29:49;;;;;;;2.88;1.33;;;15.90;99.90;;;;;;4826386;29;20077;-82
2022/07/18 00:32:39;;;;;;;2.08;1.50;;;15.80;99.90;;;;;;4823797;29;20073;-83
2022/07/18 00:35:27;;;;;;;3.22;1.35;;;15.80;99.90;;;;;;4831926;29;20593;-83
2022/07/18 00:38:14;;;;;;;1.38;1.15;;;15.80;99.90;;;;;;4826070;29;20118;-83
2022/07/18 00:41:01;;;;;;;1.77;1.08;;;15.90;99.90;;;;;;4826007;29;20103;-84
2022/07/18 00:43:49;;;;;;;4.22;1.30;;;15.80;99.90;;;;;;4801351;29;20459;-83
2022/07/18 00:46:36;;;;;;;1.10;1.00;;;15.80;99.90;;;;;;4837877;29;20046;-82
2022/07/18 00:49:26;;;;;;;2.85;1.42;;;15.80;99.90;;;;;;4840133;29;20050;-82
2022/07/18 00:52:16;;;;;;;1.58;1.30;;;15.70;99.90;;;;;;4834081;29;20541;-82
2022/07/18 00:55:05;;;;;;;6.47;1.40;;;15.70;99.90;;;;;;4816696;29;20042;-82
2022/07/18 00:57:57;;;;;;;2.20;1.52;;;15.60;99.90;;;;;;4826574;29;20473;-82
2022/07/18 01:03:50;;;;;;;2.35;1.13;;;15.70;99.90;;;;;;4836758;29;20078;-82
2022/07/18 01:06:38;;;;;;;1.58;1.33;;;15.80;99.90;;;;;;4832327;29;20166;-83
2022/07/18 01:09:27;;;;;;;3.55;1.40;;;15.90;99.90;;;;;;4817392;29;20070;-82
2022/07/18 01:12:15;;;;;;;6.13;1.45;;;15.80;99.90;;;;;;4826117;29;20468;-83
2022/07/18 01:15:04;;;;;;;3.38;1.38;;;15.60;99.90;;;;;;4827005;29;20217;-82
2022/07/18 01:17:53;;;;;;;4.60;1.52;;;15.40;99.90;;;;;;4817983;29;20081;-82
2022/07/18 01:20:40;;;;;;;2.60;1.23;;;15.30;99.90;;;;;;4841709;29;20057;-82
2022/07/18 01:23:27;;;;;;;2.70;1.42;;;15.20;99.90;;;;;;4842106;29;20049;-82
2022/07/18 01:26:16;;;;;;;2.08;1.15;;;15.10;99.90;;;;;;4823217;29;20477;-82
2022/07/18 01:29:05;;;;;;;1.60;1.10;;;15.00;99.90;;;;;;4831103;29;20054;-82
2022/07/18 01:31:54;;;;;;;9.88;1.50;;;14.90;99.90;;;;;;4834818;29;20057;-82
2022/07/18 01:34:45;;;;;;;3.53;1.73;;;14.90;99.90;;;;;;4828299;29;20115;-82
2022/07/18 01:37:32;;;;;;;4.75;2.10;;;15.10;99.90;;;;;;4828612;29;20379;-82
2022/07/18 01:40:20;;;;;;;2.10;1.60;;;15.20;99.90;;;;;;4825694;29;20050;-82
2022/07/18 01:43:07;;;;;;;8.35;1.80;;;15.20;99.90;;;;;;4826848;29;20152;-82
2022/07/18 01:45:55;;;;;;;4.40;1.85;;;15.10;99.90;;;;;;4836514;29;20353;-82
2022/07/18 01:48:44;;;;;;;2.17;1.45;;;14.90;99.90;;;;;;4835970;29;20047;-83
2022/07/18 01:51:31;;;;;;;4.60;1.88;;;14.80;99.90;;;;;;4819548;29;20058;-82
2022/07/18 01:54:27;;;;;;;3.83;1.75;;;14.70;99.90;;;;;;4825746;29;20062;-82
2022/07/18 01:57:14;;;;;;;8.55;2.45;;;14.70;1.00;;;;;;4828154;29;20042;-82
2022/07/18 02:00:02;;;;;;;6.00;1.63;;;14.70;1.00;;;;;;4824660;29;20046;-82
2022/07/18 02:02:51;;;;;;;5.07;1.95;;;14.80;1.00;;;;;;4815993;29;20042;-83
2022/07/18 02:05:41;;;;;;;1.85;1.65;;;14.80;1.00;;;;;;4839571;29;20061;-82
2022/07/18 02:08:28;;;;;;;3.55;1.95;;;14.70;1.00;;;;;;4828846;29;20057;-82
2022/07/18 02:11:15;;;;;;;4.47;1.70;;;14.70;1.00;;;;;;4825197;29;20453;-83
2022/07/18 02:14:06;;;;;;;3.92;2.25;;;14.70;1.00;;;;;;4834255;29;20153;-82
2022/07/18 02:16:55;;;;;;;7.15;1.85;;;14.70;1.00;;;;;;4828812;29;20155;-83
2022/07/18 02:19:45;;;;;;;3.20;1.80;;;14.60;1.00;;;;;;4835203;29;20407;-83
2022/07/18 02:22:35;;;;;;;4.70;1.95;;;14.50;1.00;;;;;;4820553;29;20140;-84
2022/07/18 02:25:22;;;;;;;3.15;1.85;;;14.30;1.00;;;;;;4832860;29;20493;-82
2022/07/18 02:28:10;;;;;;;4.03;2.50;;;14.20;1.00;;;;;;4825890;29;20050;-83
2022/07/18 02:30:57;;;;;;;4.63;2.00;;;14.00;1.00;;;;;;4824370;29;20095;-82
2022/07/18 02:33:45;;;;;;;4.70;2.17;;;13.90;1.00;;;;;;4823585;29;20046;-81
2022/07/18 02:36:32;;;;;;;4.22;2.17;;;13.90;1.00;;;;;;4827550;29;20057;-82
2022/07/18 02:39:25;;;;;;;3.95;1.92;;;13.90;1.00;;;;;;4828754;29;20468;-82
2022/07/18 02:42:12;;;;;;;4.00;2.17;;;13.70;1.00;;;;;;4823167;29;20091;-82
2022/07/18 02:44:59;;;;;;;2.70;1.88;;;13.60;1.00;;;;;;4827096;29;20082;-82
2022/07/18 02:47:46;;;;;;;2.92;2.03;;;13.50;1.00;;;;;;4828754;29;20110;-82
2022/07/18 02:50:33;;;;;;;5.40;1.80;;;13.40;1.00;;;;;;4817808;29;20065;-82
2022/07/18 02:53:23;;;;;;;6.63;2.40;;;13.50;1.00;;;;;;4830929;29;20050;-82
2022/07/18 02:56:10;;;;;;;3.17;1.65;;;13.60;1.00;;;;;;4833832;29;20068;-82
2022/07/18 02:58:59;;;;;;;5.47;1.95;;;13.70;1.00;;;;;;4823298;29;20607;-82
2022/07/18 03:01:48;;;;;;;4.18;1.90;;;13.70;1.00;;;;;;4819058;29;20062;-82
2022/07/18 03:04:36;;;;;;;4.38;1.95;;;13.70;1.00;;;;;;4827476;29;20054;-81
2022/07/18 03:07:23;;;;;;;3.20;1.75;;;13.70;1.00;;;;;;4832019;29;20267;-82
2022/07/18 03:10:12;;;;;;;5.55;2.70;;;13.60;1.00;;;;;;4822983;29;20050;-82
2022/07/18 03:12:59;;;;;;;3.50;1.83;;;13.60;1.00;;;;;;4824076;29;20047;-82
2022/07/18 03:15:49;;;;;;;3.97;1.93;;;13.50;1.00;;;;;;4784945;29;1116853;-82
2022/07/18 03:18:36;;;;;;;5.85;1.77;;;13.50;1.00;;;;;;4824001;29;20287;-82
2022/07/18 03:21:23;;;;;;;3.63;1.98;;;13.40;1.00;;;;;;4820853;29;20050;-83
2022/07/18 03:24:10;;;;;;;2.80;1.80;;;13.20;1.00;;;;;;4817151;29;20202;-83
2022/07/18 03:27:00;;;;;;;3.78;2.15;;;13.10;1.00;;;;;;4825481;29;20479;-82
2022/07/18 03:29:47;;;;;;;2.20;2.00;;;13.10;1.00;;;;;;4819357;29;20058;-82
2022/07/18 03:32:36;;;;;;;6.72;2.25;;;13.10;1.00;;;;;;4825995;29;20050;-82
2022/07/18 03:35:24;;;;;;;5.53;2.03;;;13.00;1.00;;;;;;4823259;29;20135;-82
2022/07/18 03:38:11;;;;;;;5.45;2.03;;;12.90;1.00;;;;;;4832974;29;20449;-82
2022/07/18 03:41:00;;;;;;;2.80;2.00;;;12.90;1.00;;;;;;4822781;29;20054;-83
2022/07/18 03:43:50;;;;;;;4.25;2.70;;;12.90;1.00;;;;;;4815097;29;20371;-82
2022/07/18 03:46:37;;;;;;;4.72;2.28;;;13.10;1.00;;;;;;4842660;29;20114;-82
2022/07/18 03:49:24;;;;;;;5.82;2.35;;;13.10;1.00;;;;;;4839446;29;20058;-83
2022/07/18 03:52:12;;;;;;;5.10;2.83;;;13.20;1.00;;;;;;4839299;29;20225;-82
2022/07/18 03:55:01;;;;;;;3.97;1.88;;;13.20;1.00;;;;;;4819317;29;20167;-82
2022/07/18 03:57:48;;;;;;;6.35;1.83;;;13.20;1.00;;;;;;4823375;29;20050;-82
2022/07/18 04:00:35;;;;;;;3.90;2.00;;;13.40;1.00;;;;;;4826051;29;20689;-81
2022/07/18 04:03:23;;;;;;;5.32;2.88;;;13.50;1.00;;;;;;4834011;29;20090;-82
2022/07/18 04:06:13;;;;;;;5.28;2.05;;;13.50;1.00;;;;;;4824889;29;20062;-82
2022/07/18 04:09:00;;;;;;;3.60;1.92;;;13.40;1.00;;;;;;4828033;29;20062;-81
2022/07/18 04:11:48;;;;;;;3.35;1.83;;;13.40;1.00;;;;;;4817146;29;20484;-82
2022/07/18 04:14:35;;;;;;;2.08;1.83;;;13.40;1.00;;;;;;4826537;29;20126;-82
2022/07/18 04:17:23;;;;;;;3.97;2.15;;;13.40;1.00;;;;;;4824088;29;20053;-82
2022/07/18 04:20:11;;;;;;;2.10;1.90;;;13.50;1.00;;;;;;4823331;29;20515;-82
2022/07/18 04:23:01;;;;;;;2.30;1.52;;;13.60;1.00;;;;;;4820878;29;20053;-82
2022/07/18 04:25:49;;;;;;;2.53;1.75;;;13.60;1.00;;;;;;4840566;29;20161;-81
2022/07/18 04:28:36;;;;;;;6.32;2.42;;;13.60;1.00;;;;;;4839845;29;20069;-82
2022/07/18 04:31:26;;;;;;;3.85;2.30;;;13.50;1.00;;;;;;4826225;29;20081;-81
2022/07/18 04:34:13;;;;;;;4.57;2.05;;;13.60;1.00;;;;;;4826967;29;20200;-83
2022/07/18 04:37:01;;;;;;;5.10;2.50;;;13.80;1.00;;;;;;4827361;29;20465;-82
2022/07/18 04:39:50;;;;;;;3.63;1.95;;;14.00;1.00;;;;;;4827476;29;20213;-82
2022/07/18 04:42:38;;;;;;;9.13;2.13;;;14.10;1.00;;;;;;4827131;29;20122;-82
2022/07/18 04:45:25;;;;;;;2.78;2.00;;;14.20;1.00;;;;;;4827139;29;20472;-82
2022/07/18 04:48:12;;;;;;;3.17;1.70;;;14.30;1.00;;;;;;4826171;29;20108;-82
2022/07/18 04:51:01;;;;;;;9.27;2.10;;;14.30;1.00;;;;;;4819657;29;20093;-82
2022/07/18 04:53:52;;;;;;;3.60;1.70;;;14.30;1.00;;;;;;4841964;29;20129;-82
2022/07/18 04:56:39;;;;;;;2.35;1.90;;;14.40;1.00;;;;;;4828015;29;20053;-82
2022/07/18 04:59:26;;;;;;;7.32;2.13;;;14.40;1.00;;;;;;4831418;29;20057;-82
2022/07/18 05:02:22;;;;;;;3.15;1.85;;;14.50;1.00;;;;;;4831507;29;20433;-82
2022/07/18 05:05:11;;;;;;;8.13;2.20;;;14.50;1.00;;;;;;4826422;29;20138;-82
2022/07/18 05:07:58;;;;;;;6.25;2.17;;;14.60;1.00;;;;;;4824773;29;20502;-82
2022/07/18 05:10:45;;;;;;;6.65;2.50;;;14.80;1.00;;;;;;4817034;29;20046;-82
2022/07/18 05:13:34;;;;;;;4.22;1.70;;;14.90;1.00;;;;;;4828656;29;20077;-82
2022/07/18 05:16:21;;;;;;;5.82;1.80;;;15.10;1.00;;;;;;4825350;29;20322;-82
2022/07/18 05:19:08;;;;;;;5.80;2.40;;;15.20;1.00;;;;;;4829665;29;20049;-82
2022/07/18 05:21:56;;;;;;;6.28;2.40;;;15.30;1.00;;;;;;4837586;29;20061;-82
2022/07/18 05:24:43;;;;;;;4.03;2.00;;;15.30;1.00;;;;;;4825681;29;20129;-81
2022/07/18 05:27:31;;;;;;;5.70;2.42;;;15.30;1.00;;;;;;4828982;29;20054;-82
2022/07/18 05:30:19;;;;;;;8.10;2.50;;;15.40;1.00;;;;;;4825161;29;20469;-82
2022/07/18 05:33:08;;;;;;;8.90;2.40;;;15.50;1.00;;;;;;4825415;29;20046;-83
2022/07/18 05:35:57;;;;;;;4.95;1.77;;;15.50;1.00;;;;;;4841638;29;20126;-81
2022/07/18 05:38:44;;;;;;;4.43;1.95;;;15.70;1.00;;;;;;4816808;29;20055;-84
2022/07/18 05:41:34;;;;;;;9.43;2.30;;;15.80;1.00;;;;;;4817053;29;20051;-83
2022/07/18 05:44:21;;;;;;;12.00;2.33;;;16.00;1.00;;;;;;4825640;29;20055;-83
2022/07/18 05:47:11;;;;;;;5.90;2.38;;;16.30;1.00;;;;;;4826348;29;20492;-81
2022/07/18 05:49:58;;;;;;;5.47;2.17;;;16.50;1.00;;;;;;4829584;29;20145;-82
2022/07/18 05:52:48;;;;;;;5.55;2.47;;;16.70;1.00;;;;;;4829229;29;20125;-83
2022/07/18 05:55:35;;;;;;;5.05;2.28;;;16.80;1.00;;;;;;4834242;29;20077;-82
2022/07/18 05:58:23;;;;;;;8.25;2.47;;;16.90;1.00;;;;;;4831627;29;20477;-83
2022/07/18 06:01:10;;;;;;;4.22;2.25;;;17.20;1.00;;;;;;4829606;29;20051;-83
2022/07/18 06:03:59;;;;;;;5.97;2.80;;;17.40;1.00;;;;;;4831435;29;20046;-83
2022/07/18 06:06:49;;;;;;;6.95;2.50;;;17.60;1.00;;;;;;4830001;29;20042;-82
2022/07/18 06:09:37;;;;;;;6.80;2.58;;;17.80;1.00;;;;;;4815638;29;20146;-83
2022/07/18 06:12:28;;;;;;;6.68;2.15;;;17.90;1.00;;;;;;4839091;29;20142;-83
2022/07/18 06:15:21;;;;;;;6.80;2.45;;;18.10;1.00;;;;;;4820684;29;20069;-84
2022/07/18 06:18:11;;;;;;;6.68;2.33;;;18.40;99.90;;;;;;4825316;29;20483;-83
2022/07/18 06:20:59;;;;;;;4.93;1.95;;;18.60;99.90;;;;;;4834862;29;20125;-83
2022/07/18 06:23:46;;;;;;;6.03;1.95;;;18.70;99.90;;;;;;4832558;29;20099;-83
2022/07/18 06:26:35;;;;;;;7.03;2.08;;;18.90;99.90;;;;;;4827175;29;20058;-84
2022/07/18 06:29:22;;;;;;;9.20;2.05;;;19.00;99.90;;;;;;4830739;29;20581;-84
2022/07/18 06:32:10;;;;;;;5.82;2.33;;;19.20;99.90;;;;;;4818281;29;20087;-84
2022/07/18 06:34:57;;;;;;;5.55;1.95;;;19.40;99.90;;;;;;4830340;29;20047;-84
2022/07/18 06:37:47;;;;;;;3.65;2.05;;;19.60;99.90;;;;;;4837853;29;20135;-84
2022/07/18 06:40:34;;;;;;;4.50;2.13;;;19.70;99.90;;;;;;4827050;29;20385;-84
2022/07/18 06:43:24;;;;;;;7.13;2.20;;;19.80;99.90;;;;;;4829350;29;20110;-82
2022/07/18 06:46:11;;;;;;;3.33;1.58;;;20.30;99.90;;;;;;4828326;29;20050;-82
2022/07/18 06:49:01;;;;;;;2.63;1.60;;;20.60;99.90;;;;;;4825662;29;20055;-82
2022/07/18 06:51:48;;;;;;;5.72;2.10;;;20.80;99.90;;;;;;4813818;29;20057;-82
2022/07/18 06:54:37;;;;;;;5.03;1.92;;;21.00;99.90;;;;;;4838393;29;20360;-82
2022/07/18 06:57:27;;;;;;;7.63;1.92;;;21.20;99.90;;;;;;4834258;29;20046;-83
2022/07/18 07:00:15;;;;;;;8.60;2.10;;;21.40;99.90;;;;;;4840736;29;20153;-82
2022/07/18 07:03:02;;;;;;;6.43;2.08;;;21.60;99.90;;;;;;4816157;29;20058;-82
2022/07/18 07:05:49;;;;;;;5.20;2.00;;;21.90;99.90;;;;;;4826828;29;20053;-82
2022/07/18 07:08:36;;;;;;;7.95;1.80;;;22.20;99.90;;;;;;4829402;29;20054;-82
2022/07/18 07:11:24;;;;;;;8.35;1.80;;;22.60;99.90;;;;;;4815028;29;20078;-82
2022/07/18 07:14:11;;;;;;;4.38;1.83;;;23.20;99.90;;;;;;4836945;29;20062;-85
2022/07/18 07:16:58;;;;;;;3.10;1.58;;;23.80;99.90;;;;;;4830771;29;20067;-85
2022/07/18 07:19:46;;;;;;;4.40;1.90;;;24.30;99.90;;;;;;4818572;29;20061;-85
2022/07/18 07:22:47;;;;;;;7.88;2.00;;;24.50;99.90;;;;;;4822290;29;20059;-83
2022/07/18 07:25:36;;;;;;;3.15;1.70;;;24.90;99.90;;;;;;4838143;29;20142;-82
2022/07/18 07:28:26;;;;;;;3.13;1.52;;;25.20;99.90;;;;;;4831341;29;20062;-82
2022/07/18 07:31:13;;;;;;;1.65;1.25;;;26.00;99.90;;;;;;4838055;29;20054;-83
2022/07/18 07:34:00;;;;;;;6.13;1.58;;;26.70;99.90;;;;;;4830567;29;20050;-84
2022/07/18 07:36:52;;;;;;;;;;;27.40;99.90;;;;;;4820832;29;20363;-82
2022/07/18 07:39:40;;;;;;;11.23;1.70;;;27.50;99.90;;;;;;4839014;29;19929;-83
2022/07/18 07:42:30;;;;;;;7.60;2.00;;;26.90;99.90;;;;;;4830214;29;20054;-82
2022/07/18 07:45:18;;;;;;;4.20;1.70;;;26.50;99.90;;;;;;4835747;29;20047;-84
2022/07/18 07:48:06;;;;;;;9.90;1.50;;;26.90;99.90;;;;;;4826892;29;20120;-84
2022/07/18 07:50:55;;;;;;;4.47;1.45;;;27.20;99.90;;;;;;4829749;29;20058;-85
2022/07/18 07:53:42;;;;;;;7.35;1.80;;;27.90;99.90;;;;;;4823493;29;20046;-84
2022/07/18 07:56:29;;;;;;;3.17;1.52;;;28.80;99.90;;;;;;4831683;29;20378;-84
2022/07/18 07:59:19;;;;;;;4.57;1.83;;;29.10;99.90;;;;;;4823230;29;20115;-84
2022/07/18 08:02:08;;;;;;;7.22;1.92;;;29.40;99.90;;;;;;4830690;29;20054;-85
2022/07/18 08:04:58;;;;;;;3.45;2.58;;;29.30;99.90;;;;;;4828103;29;20095;-84
2022/07/18 08:07:46;;;;;;;3.95;1.60;;;30.00;99.90;;;;;;4817450;29;20089;-85
2022/07/18 08:10:36;;;;;;;3.28;1.90;;;30.50;99.90;;;;;;4827115;29;20114;-84
2022/07/18 08:13:29;;;;;;;7.57;2.00;;;30.80;99.90;;;;;;4827696;29;20054;-85
2022/07/18 08:16:16;;;;;;;3.28;1.90;;;30.50;99.90;;;;;;4825109;29;20045;-83
2022/07/18 08:19:04;;;;;;;3.80;1.60;;;29.90;99.90;;;;;;4829679;29;20050;-83
2022/07/18 08:21:51;;;;;;;4.05;2.15;;;30.10;99.90;;;;;;4823379;29;20054;-84
2022/07/18 08:24:39;;;;;;;4.55;1.50;;;30.70;99.90;;;;;;4821365;29;20065;-84
2022/07/18 08:27:26;;;;;;;5.47;1.30;;;31.40;99.90;;;;;;4824556;29;20105;-84
2022/07/18 08:30:13;;;;;;;3.95;1.60;;;31.90;99.90;;;;;;4833176;29;20046;-85
2022/07/18 08:33:06;;;;;;;4.20;1.63;;;32.80;99.90;;;;;;4833668;29;20053;-86
2022/07/18 08:35:56;;;;;;;3.78;1.23;;;32.70;99.90;;;;;;4827386;29;20054;-84
2022/07/18 08:38:43;;;;;;;2.22;1.20;;;33.20;99.90;;;;;;4829850;29;20050;-84
2022/07/18 08:41:31;;;;;;;1.88;1.25;;;33.00;99.90;;;;;;4826677;29;20111;-84
2022/07/18 08:44:19;;;;;;;5.93;1.75;;;33.30;99.90;;;;;;4827167;29;20046;-84
2022/07/18 08:47:07;;;;;;;1.67;1.20;;;32.90;99.90;;;;;;4836474;29;20054;-83
2022/07/18 08:49:55;;;;;;;7.28;1.70;;;31.60;99.90;;;;;;4837297;29;20051;-83
2022/07/18 08:52:43;;;;;;;4.72;1.27;;;30.80;99.90;;;;;;4836549;29;20054;-82
2022/07/18 08:55:40;;;;;;;2.03;1.10;;;30.40;99.90;;;;;;4829160;29;20049;-82
2022/07/18 08:58:29;;;;;;;3.03;1.13;;;30.70;99.90;;;;;;4829164;29;20476;-85
2022/07/18 09:01:33;;;;;;;2.53;1.48;;;30.90;99.90;;;;;;4830727;29;20150;-85
2022/07/18 09:04:38;;;;;;;4.10;1.40;;;32.50;99.90;;;;;;4826750;29;20054;-83
2022/07/18 09:07:27;;;;;;;2.38;1.15;;;33.10;99.90;;;;;;4831920;29;20137;-82
2022/07/18 09:10:16;;;;;;;5.63;1.25;;;32.40;99.90;;;;;;4826966;29;20115;-84
2022/07/18 09:13:05;;;;;;;2.45;1.20;;;31.50;99.90;;;;;;4826576;29;20049;-84
2022/07/18 09:16:20;;;;;;;5.03;1.42;;;32.50;99.90;;;;;;4832538;29;20130;-85
2022/07/18 09:19:10;;;;;;;6.72;1.20;;;34.10;99.90;;;;;;4829993;29;20057;-84
2022/07/18 09:22:15;;;;;;;2.33;1.02;;;34.80;99.90;;;;;;4833628;29;20056;-85
2022/07/18 09:25:11;;;;;;;1.05;0.85;;;35.10;99.90;;;;;;4829057;29;20138;-85
2022/07/18 09:27:58;;;;;;;2.83;1.20;;;34.80;99.90;;;;;;4833072;29;20046;-83
2022/07/18 09:30:46;;;;;;;2.33;1.25;;;35.10;99.90;;;;;;4833926;29;20050;-83
2022/07/18 09:33:40;;;;;;;1.73;1.10;;;34.20;99.90;;;;;;4825712;29;20469;-85
2022/07/18 09:36:36;;;;;;;2.65;1.00;;;34.30;99.90;;;;;;4836780;29;20054;-84
2022/07/18 09:39:24;;;;;;;1.90;1.00;;;35.40;99.90;;;;;;4823186;29;20068;-85
2022/07/18 09:42:18;;;;;;;4.60;1.10;;;36.10;99.90;;;;;;4826600;29;20066;-85
2022/07/18 09:45:07;;;;;;;1.63;1.20;;;36.80;99.90;;;;;;4836591;29;20437;-86
2022/07/18 09:47:59;;;;;;;0.80;0.80;;;37.30;99.90;;;;;;4836930;29;20058;-85
2022/07/18 09:50:53;;;;;;;1.95;1.10;;;37.50;99.90;;;;;;4831457;29;20138;-85
2022/07/18 09:53:42;;;;;;;1.13;0.85;;;38.00;99.90;;;;;;4816983;29;20062;-85
2022/07/18 09:56:33;;;;;;;1.75;1.20;;;37.60;99.90;;;;;;4834953;29;20050;-85
2022/07/18 09:59:24;;;;;;;1.90;1.25;;;37.80;99.90;;;;;;4822728;29;20047;-83
2022/07/18 10:02:13;;;;;;;1.80;1.23;;;37.10;99.90;;;;;;4831454;29;20065;-83
2022/07/18 10:05:03;;;;;;;1.58;0.88;;;35.70;99.90;;;;;;4825428;29;20054;-83
2022/07/18 10:07:57;;;;;;;1.80;1.08;;;34.70;99.90;;;;;;4830667;29;20046;-85
2022/07/18 10:10:46;;;;;;;2.35;1.08;;;36.10;99.90;;;;;;4824681;29;20050;-83
2022/07/18 10:13:36;;;;;;;3.50;1.10;;;36.60;99.90;;;;;;4826616;29;20058;-83
2022/07/18 10:16:25;;;;;;;1.80;0.80;;;35.90;99.90;;;;;;4834179;29;20058;-84
2022/07/18 10:19:13;;;;;;;0.70;0.70;;;35.30;99.90;;;;;;4825439;29;20065;-85
2022/07/18 10:22:01;;;;;;;1.33;0.77;;;35.90;99.90;;;;;;4824325;29;20050;-82
2022/07/18 10:24:51;;;;;;;1.42;0.98;;;36.70;99.90;;;;;;4825628;29;20045;-83
2022/07/18 10:27:52;;;;;;;1.80;0.90;;;37.30;99.90;;;;;;4834470;29;20433;-82
2022/07/18 10:30:46;;;;;;;1.53;1.00;;;37.80;99.90;;;;;;4824790;29;20054;-84
2022/07/18 10:33:47;;;;;;;1.52;0.80;;;38.10;99.90;;;;;;4824129;29;20099;-82
2022/07/18 10:36:39;;;;;;;4.10;0.77;;;38.00;99.90;;;;;;4821789;29;20111;-84
2022/07/18 10:39:35;;;;;;;1.13;0.90;;;37.40;99.90;;;;;;4827192;29;20058;-84
2022/07/18 10:42:24;;;;;;;1.58;1.15;;;38.10;99.90;;;;;;4826851;29;20384;-84
2022/07/18 10:45:45;;;;;;;1.55;1.00;;;38.50;99.90;;;;;;4807207;29;20155;-84
2022/07/18 10:48:37;;;;;;;3.08;1.00;;;39.00;99.90;;;;;;4825999;29;20139;-83
2022/07/18 10:51:29;;;;;;;0.90;0.80;;;39.20;99.90;;;;;;4827377;29;20046;-84
2022/07/18 10:54:17;;;;;;;3.83;1.08;;;39.90;99.90;;;;;;4837190;29;20082;-84
2022/07/18 10:57:06;;;;;;;1.80;1.00;;;39.40;99.90;;;;;;4812876;29;20050;-84
2022/07/18 11:00:00;;;;;;;4.30;0.90;;;39.10;99.90;;;;;;4818689;29;20127;-83
2022/07/18 11:03:03;;;;;;;0.93;0.93;;;38.90;99.90;;;;;;4827687;29;20058;-83
2022/07/18 11:05:56;;;;;;;2.40;1.00;;;39.60;99.90;;;;;;4825379;29;20053;-84
2022/07/18 11:08:43;;;;;;;1.15;1.05;;;39.20;99.90;;;;;;4830048;29;20131;-84
2022/07/18 11:11:33;;;;;;;2.88;1.00;;;38.70;99.90;;;;;;4833380;29;20057;-84
2022/07/18 11:14:58;;;;;;;4.53;1.00;;;38.00;99.90;;;;;;4824079;29;20057;-84
2022/07/18 11:18:05;;;;;;;1.67;1.05;;;38.40;99.90;;;;;;4822291;29;20448;-84
2022/07/18 11:20:58;;;;;;;1.75;0.93;;;38.50;99.90;;;;;;4824655;29;20061;-83
2022/07/18 11:23:47;;;;;;;2.08;1.00;;;38.60;99.90;;;;;;4837624;29;20380;-84
2022/07/18 11:26:37;;;;;;;1.45;0.90;;;39.40;99.90;;;;;;4826225;29;20054;-84
2022/07/18 11:29:25;;;;;;;5.35;1.05;;;40.20;99.90;;;;;;4828399;29;20118;-82
2022/07/18 11:32:19;;;;;;;0.85;0.85;;;38.90;99.90;;;;;;4818394;29;20046;-83
2022/07/18 11:35:09;;;;;;;3.13;0.93;;;37.80;99.90;;;;;;4823465;29;20050;-83
2022/07/18 11:38:03;;;;;;;2.28;0.82;;;38.00;99.90;;;;;;4826584;29;20121;-85
2022/07/18 11:40:51;;;;;;;2.25;0.90;;;38.30;99.90;;;;;;4838028;29;20053;-83
2022/07/18 11:43:40;;;;;;;1.85;0.82;;;38.00;99.90;;;;;;4820997;29;20061;-82
2022/07/18 11:46:30;;;;;;;1.55;0.90;;;36.90;99.90;;;;;;4825307;29;20050;-83
2022/07/18 11:49:17;;;;;;;1.02;0.88;;;36.80;99.90;;;;;;4817142;29;20047;-83
2022/07/18 11:52:06;;;;;;;1.80;0.93;;;37.30;99.90;;;;;;4824058;29;20061;-84
2022/07/18 11:54:56;;;;;;;1.42;0.90;;;37.10;99.90;;;;;;4835938;29;20506;-84
2022/07/18 11:57:46;;;;;;;1.30;0.85;;;38.70;99.90;;;;;;4823500;29;20069;-84
2022/07/18 12:00:38;;;;;;;2.05;1.10;;;39.50;99.90;;;;;;4823561;29;20373;-85
2022/07/18 12:03:27;;;;;;;1.40;0.70;;;40.20;99.90;;;;;;4823357;29;20051;-86
2022/07/18 12:06:16;;;;;;;2.85;0.85;;;40.70;99.90;;;;;;4813072;29;20050;-85
2022/07/18 12:09:04;;;;;;;3.22;0.80;;;41.80;99.90;;;;;;4824946;29;20046;-86
2022/07/18 12:11:51;;;;;;;2.17;0.80;;;43.20;99.90;;;;;;4836211;29;20500;-86
2022/07/18 12:15:01;;;;;;;1.52;0.80;;;42.90;99.90;;;;;;4819011;29;20689;-85
2022/07/18 12:17:52;;;;;;;1.57;1.07;;;41.80;99.90;;;;;;4824768;29;20454;-85
2022/07/18 12:20:39;;;;;;;3.67;0.70;;;41.30;99.90;;;;;;4823055;29;20310;-85
2022/07/18 12:23:32;;;;;;;1.02;0.80;;;41.40;99.90;;;;;;4823685;29;20065;-85
2022/07/18 12:26:32;;;;;;;8.55;1.10;;;41.60;99.90;;;;;;4818210;29;20080;-84
2022/07/18 12:29:55;;;;;;;2.20;0.70;;;40.50;99.90;;;;;;4822896;29;20337;-85
2022/07/18 12:32:59;;;;;;;1.55;1.02;;;40.40;99.90;;;;;;4827326;29;20148;-85
2022/07/18 12:35:55;;;;;;;2.45;0.85;;;41.20;99.90;;;;;;4829875;29;20376;-84
2022/07/18 12:38:59;;;;;;;1.75;0.75;;;41.70;99.90;;;;;;4824723;29;20061;-85
2022/07/18 12:41:47;;;;;;;0.98;0.80;;;42.00;99.90;;;;;;4833737;29;20062;-84
2022/07/18 12:44:35;;;;;;;1.05;0.88;;;40.80;99.90;;;;;;4825081;29;20472;-84
2022/07/18 12:47:23;;;;;;;1.08;0.90;;;40.80;99.90;;;;;;4827619;29;20374;-83
2022/07/18 12:50:10;;;;;;;2.17;0.77;;;41.30;99.90;;;;;;4816294;29;20051;-82
2022/07/18 12:53:01;;;;;;;1.05;0.90;;;40.60;99.90;;;;;;4838223;29;20046;-84
2022/07/18 12:55:51;;;;;;;5.63;1.08;;;40.20;99.90;;;;;;4828781;29;20054;-82
2022/07/18 12:58:39;;;;;;;1.08;0.80;;;40.40;99.90;;;;;;4835302;29;20061;-82
2022/07/18 13:01:29;;;;;;;1.02;0.80;;;39.40;99.90;;;;;;4833346;29;20428;-83
2022/07/18 13:04:17;;;;;;;2.87;1.00;;;38.90;99.90;;;;;;4826046;29;20049;-83
2022/07/18 13:07:04;;;;;;;4.63;0.98;;;39.30;99.90;;;;;;4837289;29;20057;-82
2022/07/18 13:09:54;;;;;;;1.92;1.05;;;38.50;99.90;;;;;;4827983;29;20054;-83
2022/07/18 13:12:42;;;;;;;2.10;1.13;;;37.70;99.90;;;;;;4832345;29;20492;-84
2022/07/18 13:15:29;;;;;;;1.42;0.90;;;38.80;99.90;;;;;;4839548;29;20057;-84
2022/07/18 13:18:17;;;;;;;3.65;0.80;;;40.30;99.90;;;;;;4839106;29;20046;-84
2022/07/18 13:21:04;;;;;;;2.35;0.90;;;40.70;99.90;;;;;;4839613;29;20443;-85
2022/07/18 13:23:52;;;;;;;2.88;1.15;;;41.00;99.90;;;;;;4831282;29;20054;-84
2022/07/18 13:26:42;;;;;;;1.63;1.00;;;40.50;99.90;;;;;;4838762;29;20130;-84
2022/07/18 13:29:35;;;;;;;1.75;0.80;;;41.60;99.90;;;;;;4837767;29;20111;-84
2022/07/18 13:32:24;;;;;;;1.30;1.13;;;41.50;99.90;;;;;;4832392;29;20050;-85
2022/07/18 13:35:12;;;;;;;1.85;1.05;;;40.90;99.90;;;;;;4829153;29;20357;-83
2022/07/18 13:38:00;;;;;;;1.40;1.25;;;40.90;99.90;;;;;;4831564;29;20054;-83
2022/07/18 13:40:51;;;;;;;4.72;1.27;;;40.10;99.90;;;;;;4835043;29;20069;-83
2022/07/18 13:43:40;;;;;;;2.70;1.25;;;38.40;99.90;;;;;;4831106;29;20081;-85
2022/07/18 13:46:27;;;;;;;2.38;1.05;;;38.70;99.90;;;;;;4819363;29;20456;-84
2022/07/18 13:49:16;;;;;;;2.45;1.10;;;39.70;99.90;;;;;;4831708;29;20402;-85
2022/07/18 13:52:03;;;;;;;3.28;1.10;;;40.60;99.90;;;;;;4822023;29;20090;-85
2022/07/18 13:54:56;;;;;;;1.30;0.82;;;41.10;99.90;;;;;;4827221;29;20185;-84
2022/07/18 13:57:43;;;;;;;2.03;1.23;;;41.80;99.90;;;;;;4826461;29;20056;-85
2022/07/18 14:00:31;;;;;;;1.35;1.02;;;42.50;99.90;;;;;;4830510;29;20065;-84
2022/07/18 14:03:18;;;;;;;3.33;1.00;;;42.00;99.90;;;;;;4823269;29;20429;-83
2022/07/18 14:06:08;;;;;;;6.30;2.30;;;40.90;99.90;;;;;;4842342;29;20081;-83
2022/07/18 14:08:57;;;;;;;3.45;1.15;;;40.40;99.90;;;;;;4825800;29;20061;-85
2022/07/18 14:11:44;;;;;;;2.13;1.08;;;40.70;99.90;;;;;;4827039;29;20054;-85
2022/07/18 14:14:34;;;;;;;2.38;0.93;;;41.60;99.90;;;;;;4818561;29;20102;-82
2022/07/18 14:17:22;;;;;;;1.65;1.10;;;41.90;99.90;;;;;;4828262;29;20149;-82
2022/07/18 14:20:10;;;;;;;3.50;1.30;;;41.30;99.90;;;;;;4833945;29;20077;-83
2022/07/18 14:23:00;;;;;;;4.55;1.10;;;40.10;99.90;;;;;;4814508;29;20061;-83
2022/07/18 14:25:48;;;;;;;2.92;1.15;;;40.00;99.90;;;;;;4827229;29;20050;-83
2022/07/18 14:28:35;;;;;;;4.22;1.30;;;40.50;99.90;;;;;;4833508;29;20095;-84
2022/07/18 14:31:25;;;;;;;2.50;1.30;;;41.00;99.90;;;;;;4819775;29;20126;-84
2022/07/18 14:34:12;;;;;;;3.22;1.15;;;41.50;99.90;;;;;;4834178;29;20163;-84
2022/07/18 14:37:01;;;;;;;2.97;1.10;;;41.10;99.90;;;;;;4826339;29;20105;-84
2022/07/18 14:39:49;;;;;;;1.60;1.20;;;40.70;99.90;;;;;;4824143;29;20367;-85
2022/07/18 14:42:43;;;;;;;4.32;1.20;;;40.50;99.90;;;;;;4824846;29;20047;-83
2022/07/18 14:45:32;;;;;;;1.08;0.98;;;39.90;99.90;;;;;;4813977;29;20054;-84
2022/07/18 14:48:36;;;;;;;2.80;1.00;;;40.20;99.90;;;;;;4831585;29;20049;-84
2022/07/18 14:51:24;;;;;;;0.98;0.85;;;41.40;99.90;;;;;;4841192;29;20054;-84